sensor_id;sensor_type;location;lat;lon;timestamp;P1;durP1;ratioP1;P2;durP2;ratioP2
21128;SDS011;10722;51.910;8.352;2023-10-09T00:00:54;14.20;;;5.15;;
21128;SDS011;10722;51.910;8.352;2023-10-09T00:03:46;18.52;;;5.45;;
21128;SDS011;10722;51.910;8.352;2023-10-09T00:06:32;15.05;;;5.15;;
21128;SDS011;10722;51.910;8.352;2023-10-09T00:09:17;14.73;;;5.40;;
21128;SDS011;10722;51.910;8.352;2023-10-09T00:12:03;15.13;;;5.28;;
21128;SDS011;10722;51.910;8.352;2023-10-09T00:14:49;15.85;;;4.90;;
21128;SDS011;10722;51.910;8.352;2023-10-09T00:17:34;16.40;;;5.30;;
21128;SDS011;10722;51.910;8.352;2023-10-09T00:20:19;15.32;;;5.75;;
21128;SDS011;10722;51.910;8.352;2023-10-09T00:23:05;17.45;;;6.00;;
21128;SDS011;10722;51.910;8.352;2023-10-09T00:25:49;17.95;;;6.05;;
21128;SDS011;10722;51.910;8.352;2023-10-09T00:28:35;20.33;;;7.10;;
21128;SDS011;10722;51.910;8.352;2023-10-09T00:31:21;15.43;;;5.95;;
21128;SDS011;10722;51.910;8.352;2023-10-09T00:34:06;16.23;;;6.18;;
21128;SDS011;10722;51.910;8.352;2023-10-09T00:36:51;16.48;;;6.20;;
21128;SDS011;10722;51.910;8.352;2023-10-09T00:39:36;18.30;;;7.10;;
21128;SDS011;10722;51.910;8.352;2023-10-09T00:42:22;20.75;;;7.35;;
21128;SDS011;10722;51.910;8.352;2023-10-09T00:45:08;20.27;;;7.03;;
21128;SDS011;10722;51.910;8.352;2023-10-09T00:47:53;20.15;;;7.38;;
21128;SDS011;10722;51.910;8.352;2023-10-09T00:50:39;18.80;;;8.00;;
21128;SDS011;10722;51.910;8.352;2023-10-09T00:53:24;21.27;;;7.65;;
21128;SDS011;10722;51.910;8.352;2023-10-09T00:56:10;19.75;;;8.27;;
21128;SDS011;10722;51.910;8.352;2023-10-09T00:58:57;21.02;;;8.07;;
21128;SDS011;10722;51.910;8.352;2023-10-09T01:01:43;19.80;;;8.40;;
21128;SDS011;10722;51.910;8.352;2023-10-09T01:04:28;20.52;;;8.32;;
21128;SDS011;10722;51.910;8.352;2023-10-09T01:07:14;23.67;;;8.80;;
21128;SDS011;10722;51.910;8.352;2023-10-09T01:09:59;21.52;;;9.32;;
21128;SDS011;10722;51.910;8.352;2023-10-09T01:12:44;21.77;;;8.73;;
21128;SDS011;10722;51.910;8.352;2023-10-09T01:15:29;24.60;;;9.55;;
21128;SDS011;10722;51.910;8.352;2023-10-09T01:18:14;21.80;;;9.77;;
21128;SDS011;10722;51.910;8.352;2023-10-09T01:21:00;22.67;;;10.10;;
21128;SDS011;10722;51.910;8.352;2023-10-09T01:23:45;22.02;;;9.23;;
21128;SDS011;10722;51.910;8.352;2023-10-09T01:26:40;21.58;;;9.52;;
21128;SDS011;10722;51.910;8.352;2023-10-09T01:29:27;22.20;;;8.88;;
21128;SDS011;10722;51.910;8.352;2023-10-09T01:32:12;23.60;;;9.73;;
21128;SDS011;10722;51.910;8.352;2023-10-09T01:34:57;25.60;;;10.20;;
21128;SDS011;10722;51.910;8.352;2023-10-09T01:37:43;27.52;;;10.23;;
21128;SDS011;10722;51.910;8.352;2023-10-09T01:40:28;24.23;;;10.73;;
21128;SDS011;10722;51.910;8.352;2023-10-09T01:43:13;21.08;;;10.27;;
21128;SDS011;10722;51.910;8.352;2023-10-09T01:45:58;25.40;;;10.77;;
21128;SDS011;10722;51.910;8.352;2023-10-09T01:48:43;23.27;;;10.57;;
21128;SDS011;10722;51.910;8.352;2023-10-09T01:51:28;23.73;;;9.90;;
21128;SDS011;10722;51.910;8.352;2023-10-09T01:54:16;24.73;;;10.20;;
21128;SDS011;10722;51.910;8.352;2023-10-09T01:57:02;26.15;;;10.85;;
21128;SDS011;10722;51.910;8.352;2023-10-09T01:59:48;25.50;;;11.05;;
21128;SDS011;10722;51.910;8.352;2023-10-09T02:02:34;26.80;;;11.02;;
21128;SDS011;10722;51.910;8.352;2023-10-09T02:05:19;28.05;;;10.95;;
21128;SDS011;10722;51.910;8.352;2023-10-09T02:08:05;26.08;;;11.07;;
21128;SDS011;10722;51.910;8.352;2023-10-09T02:10:50;25.50;;;10.50;;
21128;SDS011;10722;51.910;8.352;2023-10-09T02:13:35;21.98;;;10.00;;
21128;SDS011;10722;51.910;8.352;2023-10-09T02:16:19;25.17;;;10.80;;
21128;SDS011;10722;51.910;8.352;2023-10-09T02:19:05;23.90;;;9.98;;
21128;SDS011;10722;51.910;8.352;2023-10-09T02:21:50;26.58;;;11.20;;
21128;SDS011;10722;51.910;8.352;2023-10-09T02:24:35;23.55;;;9.98;;
21128;SDS011;10722;51.910;8.352;2023-10-09T02:27:21;24.88;;;10.82;;
21128;SDS011;10722;51.910;8.352;2023-10-09T02:30:06;24.90;;;11.27;;
21128;SDS011;10722;51.910;8.352;2023-10-09T02:32:52;27.20;;;10.98;;
21128;SDS011;10722;51.910;8.352;2023-10-09T02:35:39;28.60;;;11.05;;
21128;SDS011;10722;51.910;8.352;2023-10-09T02:38:25;26.30;;;11.18;;
21128;SDS011;10722;51.910;8.352;2023-10-09T02:41:10;27.23;;;10.95;;
21128;SDS011;10722;51.910;8.352;2023-10-09T02:43:55;25.50;;;10.98;;
21128;SDS011;10722;51.910;8.352;2023-10-09T02:46:41;27.00;;;10.65;;
21128;SDS011;10722;51.910;8.352;2023-10-09T02:49:26;29.55;;;11.43;;
21128;SDS011;10722;51.910;8.352;2023-10-09T02:52:11;24.67;;;11.40;;
21128;SDS011;10722;51.910;8.352;2023-10-09T02:54:56;23.92;;;10.65;;
21128;SDS011;10722;51.910;8.352;2023-10-09T02:57:41;26.85;;;11.50;;
21128;SDS011;10722;51.910;8.352;2023-10-09T03:00:26;26.70;;;11.02;;
21128;SDS011;10722;51.910;8.352;2023-10-09T03:03:11;30.02;;;11.23;;
21128;SDS011;10722;51.910;8.352;2023-10-09T03:05:56;27.80;;;11.50;;
21128;SDS011;10722;51.910;8.352;2023-10-09T03:08:42;24.05;;;11.45;;
21128;SDS011;10722;51.910;8.352;2023-10-09T03:11:26;29.48;;;12.30;;
21128;SDS011;10722;51.910;8.352;2023-10-09T03:14:12;31.95;;;12.45;;
21128;SDS011;10722;51.910;8.352;2023-10-09T03:16:58;29.63;;;12.38;;
21128;SDS011;10722;51.910;8.352;2023-10-09T03:19:43;33.05;;;13.65;;
21128;SDS011;10722;51.910;8.352;2023-10-09T03:22:28;27.88;;;12.70;;
21128;SDS011;10722;51.910;8.352;2023-10-09T03:25:13;30.75;;;14.20;;
21128;SDS011;10722;51.910;8.352;2023-10-09T03:27:59;34.40;;;14.73;;
21128;SDS011;10722;51.910;8.352;2023-10-09T03:30:44;31.77;;;15.02;;
21128;SDS011;10722;51.910;8.352;2023-10-09T03:33:30;39.30;;;16.13;;
21128;SDS011;10722;51.910;8.352;2023-10-09T03:36:15;31.00;;;14.70;;
21128;SDS011;10722;51.910;8.352;2023-10-09T03:39:00;37.28;;;16.40;;
21128;SDS011;10722;51.910;8.352;2023-10-09T03:41:45;35.92;;;15.82;;
21128;SDS011;10722;51.910;8.352;2023-10-09T03:44:33;38.55;;;18.15;;
21128;SDS011;10722;51.910;8.352;2023-10-09T03:47:18;33.15;;;16.35;;
21128;SDS011;10722;51.910;8.352;2023-10-09T03:50:04;35.60;;;16.55;;
21128;SDS011;10722;51.910;8.352;2023-10-09T03:52:50;39.67;;;17.90;;
21128;SDS011;10722;51.910;8.352;2023-10-09T03:55:38;40.47;;;18.48;;
21128;SDS011;10722;51.910;8.352;2023-10-09T03:58:24;35.72;;;17.00;;
21128;SDS011;10722;51.910;8.352;2023-10-09T04:01:09;36.22;;;18.60;;
21128;SDS011;10722;51.910;8.352;2023-10-09T04:03:56;40.22;;;17.58;;
21128;SDS011;10722;51.910;8.352;2023-10-09T04:06:43;43.22;;;19.23;;
21128;SDS011;10722;51.910;8.352;2023-10-09T04:09:28;39.97;;;17.67;;
21128;SDS011;10722;51.910;8.352;2023-10-09T04:12:13;52.53;;;26.20;;
21128;SDS011;10722;51.910;8.352;2023-10-09T04:14:58;53.67;;;26.83;;
21128;SDS011;10722;51.910;8.352;2023-10-09T04:17:44;55.13;;;26.08;;
21128;SDS011;10722;51.910;8.352;2023-10-09T04:20:29;54.58;;;27.80;;
21128;SDS011;10722;51.910;8.352;2023-10-09T04:23:14;52.53;;;26.90;;
21128;SDS011;10722;51.910;8.352;2023-10-09T04:25:59;52.40;;;27.95;;
21128;SDS011;10722;51.910;8.352;2023-10-09T04:28:44;53.35;;;28.38;;
21128;SDS011;10722;51.910;8.352;2023-10-09T04:31:29;57.50;;;29.88;;
21128;SDS011;10722;51.910;8.352;2023-10-09T04:34:15;52.15;;;27.98;;
21128;SDS011;10722;51.910;8.352;2023-10-09T04:37:00;53.53;;;26.67;;
21128;SDS011;10722;51.910;8.352;2023-10-09T04:39:46;52.60;;;27.63;;
21128;SDS011;10722;51.910;8.352;2023-10-09T04:42:31;54.95;;;28.45;;
21128;SDS011;10722;51.910;8.352;2023-10-09T04:45:16;53.08;;;27.45;;
21128;SDS011;10722;51.910;8.352;2023-10-09T04:48:02;55.20;;;28.90;;
21128;SDS011;10722;51.910;8.352;2023-10-09T04:50:49;54.53;;;28.45;;
21128;SDS011;10722;51.910;8.352;2023-10-09T04:53:35;58.00;;;29.50;;
21128;SDS011;10722;51.910;8.352;2023-10-09T04:56:20;57.88;;;29.05;;
21128;SDS011;10722;51.910;8.352;2023-10-09T04:59:05;55.58;;;29.95;;
21128;SDS011;10722;51.910;8.352;2023-10-09T05:01:50;53.47;;;28.80;;
21128;SDS011;10722;51.910;8.352;2023-10-09T05:04:36;54.20;;;29.58;;
21128;SDS011;10722;51.910;8.352;2023-10-09T05:07:21;54.30;;;29.10;;
21128;SDS011;10722;51.910;8.352;2023-10-09T05:10:06;54.35;;;29.13;;
21128;SDS011;10722;51.910;8.352;2023-10-09T05:12:52;59.50;;;30.42;;
21128;SDS011;10722;51.910;8.352;2023-10-09T05:15:37;62.22;;;33.50;;
21128;SDS011;10722;51.910;8.352;2023-10-09T05:18:22;51.95;;;28.58;;
21128;SDS011;10722;51.910;8.352;2023-10-09T05:21:07;59.53;;;29.27;;
21128;SDS011;10722;51.910;8.352;2023-10-09T05:23:53;56.35;;;29.90;;
21128;SDS011;10722;51.910;8.352;2023-10-09T05:26:42;58.72;;;30.65;;
21128;SDS011;10722;51.910;8.352;2023-10-09T05:29:27;53.35;;;29.00;;
21128;SDS011;10722;51.910;8.352;2023-10-09T05:32:12;55.88;;;31.98;;
21128;SDS011;10722;51.910;8.352;2023-10-09T05:34:57;58.58;;;31.55;;
21128;SDS011;10722;51.910;8.352;2023-10-09T05:37:42;55.90;;;30.98;;
21128;SDS011;10722;51.910;8.352;2023-10-09T05:40:27;63.92;;;31.92;;
21128;SDS011;10722;51.910;8.352;2023-10-09T05:43:12;59.80;;;31.67;;
21128;SDS011;10722;51.910;8.352;2023-10-09T05:45:57;62.38;;;31.70;;
21128;SDS011;10722;51.910;8.352;2023-10-09T05:48:43;62.55;;;33.28;;
21128;SDS011;10722;51.910;8.352;2023-10-09T05:51:28;62.67;;;31.35;;
21128;SDS011;10722;51.910;8.352;2023-10-09T05:54:13;60.78;;;31.52;;
21128;SDS011;10722;51.910;8.352;2023-10-09T05:56:58;61.47;;;32.20;;
21128;SDS011;10722;51.910;8.352;2023-10-09T05:59:43;55.50;;;30.45;;
21128;SDS011;10722;51.910;8.352;2023-10-09T06:02:28;63.30;;;31.77;;
21128;SDS011;10722;51.910;8.352;2023-10-09T06:05:13;58.03;;;30.85;;
21128;SDS011;10722;51.910;8.352;2023-10-09T06:07:58;65.43;;;30.92;;
21128;SDS011;10722;51.910;8.352;2023-10-09T06:10:44;58.60;;;31.15;;
21128;SDS011;10722;51.910;8.352;2023-10-09T06:13:29;62.30;;;30.92;;
21128;SDS011;10722;51.910;8.352;2023-10-09T06:16:14;68.63;;;37.72;;
21128;SDS011;10722;51.910;8.352;2023-10-09T06:19:00;68.22;;;34.88;;
21128;SDS011;10722;51.910;8.352;2023-10-09T06:21:45;62.88;;;32.75;;
21128;SDS011;10722;51.910;8.352;2023-10-09T06:24:31;92.55;;;53.45;;
21128;SDS011;10722;51.910;8.352;2023-10-09T06:27:16;74.20;;;39.72;;
21128;SDS011;10722;51.910;8.352;2023-10-09T06:30:02;65.53;;;32.60;;
21128;SDS011;10722;51.910;8.352;2023-10-09T06:32:47;63.03;;;31.63;;
21128;SDS011;10722;51.910;8.352;2023-10-09T06:35:35;59.72;;;31.13;;
21128;SDS011;10722;51.910;8.352;2023-10-09T06:38:21;59.78;;;30.95;;
21128;SDS011;10722;51.910;8.352;2023-10-09T06:41:06;50.88;;;30.15;;
21128;SDS011;10722;51.910;8.352;2023-10-09T06:43:51;53.63;;;31.35;;
21128;SDS011;10722;51.910;8.352;2023-10-09T06:46:37;56.47;;;30.67;;
21128;SDS011;10722;51.910;8.352;2023-10-09T06:49:22;54.00;;;28.80;;
21128;SDS011;10722;51.910;8.352;2023-10-09T06:52:07;49.92;;;27.98;;
21128;SDS011;10722;51.910;8.352;2023-10-09T06:54:52;42.92;;;24.92;;
21128;SDS011;10722;51.910;8.352;2023-10-09T06:57:38;48.15;;;26.02;;
21128;SDS011;10722;51.910;8.352;2023-10-09T07:00:23;48.08;;;25.23;;
21128;SDS011;10722;51.910;8.352;2023-10-09T07:03:08;44.17;;;24.98;;
21128;SDS011;10722;51.910;8.352;2023-10-09T07:06:02;41.55;;;24.08;;
21128;SDS011;10722;51.910;8.352;2023-10-09T07:08:48;43.88;;;23.80;;
21128;SDS011;10722;51.910;8.352;2023-10-09T07:11:33;45.70;;;24.17;;
21128;SDS011;10722;51.910;8.352;2023-10-09T07:14:21;40.17;;;22.85;;
21128;SDS011;10722;51.910;8.352;2023-10-09T07:17:08;45.08;;;24.00;;
21128;SDS011;10722;51.910;8.352;2023-10-09T07:19:54;43.60;;;24.92;;
21128;SDS011;10722;51.910;8.352;2023-10-09T07:22:40;39.25;;;23.38;;
21128;SDS011;10722;51.910;8.352;2023-10-09T07:25:25;44.45;;;23.35;;
21128;SDS011;10722;51.910;8.352;2023-10-09T07:28:10;39.78;;;23.95;;
21128;SDS011;10722;51.910;8.352;2023-10-09T07:30:56;40.00;;;22.98;;
21128;SDS011;10722;51.910;8.352;2023-10-09T07:33:41;45.03;;;23.48;;
21128;SDS011;10722;51.910;8.352;2023-10-09T07:36:26;40.45;;;23.92;;
21128;SDS011;10722;51.910;8.352;2023-10-09T07:39:11;42.42;;;23.17;;
21128;SDS011;10722;51.910;8.352;2023-10-09T07:41:56;42.10;;;23.55;;
21128;SDS011;10722;51.910;8.352;2023-10-09T07:44:42;40.50;;;24.15;;
21128;SDS011;10722;51.910;8.352;2023-10-09T07:47:27;42.55;;;23.02;;
21128;SDS011;10722;51.910;8.352;2023-10-09T07:50:11;42.88;;;23.98;;
21128;SDS011;10722;51.910;8.352;2023-10-09T07:52:57;40.67;;;21.23;;
21128;SDS011;10722;51.910;8.352;2023-10-09T07:55:42;41.45;;;22.33;;
21128;SDS011;10722;51.910;8.352;2023-10-09T07:58:27;41.30;;;21.98;;
21128;SDS011;10722;51.910;8.352;2023-10-09T08:01:13;39.78;;;22.02;;
21128;SDS011;10722;51.910;8.352;2023-10-09T08:03:59;45.42;;;22.42;;
21128;SDS011;10722;51.910;8.352;2023-10-09T08:06:45;39.45;;;21.83;;
21128;SDS011;10722;51.910;8.352;2023-10-09T08:09:50;38.53;;;21.40;;
21128;SDS011;10722;51.910;8.352;2023-10-09T08:12:35;39.63;;;21.08;;
21128;SDS011;10722;51.910;8.352;2023-10-09T08:15:20;39.58;;;20.83;;
21128;SDS011;10722;51.910;8.352;2023-10-09T08:18:07;38.10;;;20.33;;
21128;SDS011;10722;51.910;8.352;2023-10-09T08:20:53;40.35;;;21.10;;
21128;SDS011;10722;51.910;8.352;2023-10-09T08:23:39;35.50;;;20.60;;
21128;SDS011;10722;51.910;8.352;2023-10-09T08:26:25;35.35;;;19.88;;
21128;SDS011;10722;51.910;8.352;2023-10-09T08:29:09;34.97;;;19.88;;
21128;SDS011;10722;51.910;8.352;2023-10-09T08:31:54;34.15;;;20.20;;
21128;SDS011;10722;51.910;8.352;2023-10-09T08:34:42;38.15;;;19.33;;
21128;SDS011;10722;51.910;8.352;2023-10-09T08:37:30;40.40;;;21.23;;
21128;SDS011;10722;51.910;8.352;2023-10-09T08:40:15;37.53;;;20.77;;
21128;SDS011;10722;51.910;8.352;2023-10-09T08:43:06;35.95;;;19.67;;
21128;SDS011;10722;51.910;8.352;2023-10-09T08:45:54;37.58;;;20.58;;
21128;SDS011;10722;51.910;8.352;2023-10-09T08:48:41;37.03;;;19.52;;
21128;SDS011;10722;51.910;8.352;2023-10-09T08:51:26;37.20;;;20.33;;
21128;SDS011;10722;51.910;8.352;2023-10-09T08:54:12;35.92;;;19.40;;
21128;SDS011;10722;51.910;8.352;2023-10-09T08:56:58;36.70;;;21.02;;
21128;SDS011;10722;51.910;8.352;2023-10-09T08:59:43;37.45;;;19.58;;
21128;SDS011;10722;51.910;8.352;2023-10-09T09:02:32;37.47;;;19.73;;
21128;SDS011;10722;51.910;8.352;2023-10-09T09:05:17;37.67;;;20.48;;
21128;SDS011;10722;51.910;8.352;2023-10-09T09:08:03;39.10;;;19.70;;
21128;SDS011;10722;51.910;8.352;2023-10-09T09:10:50;37.80;;;20.80;;
21128;SDS011;10722;51.910;8.352;2023-10-09T09:16:43;32.90;;;19.48;;
21128;SDS011;10722;51.910;8.352;2023-10-09T09:19:30;36.53;;;19.35;;
21128;SDS011;10722;51.910;8.352;2023-10-09T09:22:16;36.72;;;20.15;;
21128;SDS011;10722;51.910;8.352;2023-10-09T09:25:02;39.60;;;20.40;;
21128;SDS011;10722;51.910;8.352;2023-10-09T09:27:47;36.10;;;20.30;;
21128;SDS011;10722;51.910;8.352;2023-10-09T09:30:32;39.00;;;20.25;;
21128;SDS011;10722;51.910;8.352;2023-10-09T09:33:21;38.20;;;20.92;;
21128;SDS011;10722;51.910;8.352;2023-10-09T09:36:10;36.08;;;19.48;;
21128;SDS011;10722;51.910;8.352;2023-10-09T09:38:55;37.35;;;20.27;;
21128;SDS011;10722;51.910;8.352;2023-10-09T09:41:43;34.40;;;19.58;;
21128;SDS011;10722;51.910;8.352;2023-10-09T09:44:33;37.80;;;20.48;;
21128;SDS011;10722;51.910;8.352;2023-10-09T09:47:19;36.85;;;19.83;;
21128;SDS011;10722;51.910;8.352;2023-10-09T09:50:05;32.50;;;18.77;;
21128;SDS011;10722;51.910;8.352;2023-10-09T09:52:51;37.75;;;19.33;;
21128;SDS011;10722;51.910;8.352;2023-10-09T09:55:37;37.75;;;18.33;;
21128;SDS011;10722;51.910;8.352;2023-10-09T09:58:27;36.20;;;19.73;;
21128;SDS011;10722;51.910;8.352;2023-10-09T10:01:12;34.53;;;19.77;;
21128;SDS011;10722;51.910;8.352;2023-10-09T10:04:00;35.38;;;20.00;;
21128;SDS011;10722;51.910;8.352;2023-10-09T10:06:49;38.85;;;19.48;;
21128;SDS011;10722;51.910;8.352;2023-10-09T10:09:39;35.22;;;19.02;;
21128;SDS011;10722;51.910;8.352;2023-10-09T10:18:53;35.80;;;19.30;;
21128;SDS011;10722;51.910;8.352;2023-10-09T10:21:42;33.47;;;19.35;;
21128;SDS011;10722;51.910;8.352;2023-10-09T10:32:58;34.28;;;20.35;;
21128;SDS011;10722;51.910;8.352;2023-10-09T10:35:45;35.38;;;20.08;;
21128;SDS011;10722;51.910;8.352;2023-10-09T10:38:31;40.45;;;21.58;;
21128;SDS011;10722;51.910;8.352;2023-10-09T10:41:20;37.70;;;21.17;;
21128;SDS011;10722;51.910;8.352;2023-10-09T10:44:06;38.10;;;21.08;;
21128;SDS011;10722;51.910;8.352;2023-10-09T10:46:51;36.50;;;21.13;;
21128;SDS011;10722;51.910;8.352;2023-10-09T10:49:36;37.17;;;21.40;;
21128;SDS011;10722;51.910;8.352;2023-10-09T10:52:22;39.55;;;21.73;;
21128;SDS011;10722;51.910;8.352;2023-10-09T10:55:09;37.50;;;21.52;;
21128;SDS011;10722;51.910;8.352;2023-10-09T10:57:58;36.33;;;21.13;;
21128;SDS011;10722;51.910;8.352;2023-10-09T11:00:43;36.80;;;21.38;;
21128;SDS011;10722;51.910;8.352;2023-10-09T11:03:28;39.03;;;21.85;;
21128;SDS011;10722;51.910;8.352;2023-10-09T11:06:14;37.65;;;21.40;;
21128;SDS011;10722;51.910;8.352;2023-10-09T11:09:15;40.70;;;21.92;;
21128;SDS011;10722;51.910;8.352;2023-10-09T11:12:04;38.85;;;21.05;;
21128;SDS011;10722;51.910;8.352;2023-10-09T11:14:50;40.30;;;21.73;;
21128;SDS011;10722;51.910;8.352;2023-10-09T11:17:35;38.70;;;21.85;;
21128;SDS011;10722;51.910;8.352;2023-10-09T11:20:21;37.40;;;22.83;;
21128;SDS011;10722;51.910;8.352;2023-10-09T11:23:07;38.08;;;22.63;;
21128;SDS011;10722;51.910;8.352;2023-10-09T11:25:53;51.88;;;31.88;;
21128;SDS011;10722;51.910;8.352;2023-10-09T11:28:38;39.28;;;25.38;;
21128;SDS011;10722;51.910;8.352;2023-10-09T11:31:24;41.47;;;23.92;;
21128;SDS011;10722;51.910;8.352;2023-10-09T11:34:18;40.65;;;24.83;;
21128;SDS011;10722;51.910;8.352;2023-10-09T11:39:53;38.70;;;24.58;;
21128;SDS011;10722;51.910;8.352;2023-10-09T11:42:43;42.55;;;25.60;;
21128;SDS011;10722;51.910;8.352;2023-10-09T11:45:28;39.65;;;25.70;;
21128;SDS011;10722;51.910;8.352;2023-10-09T11:48:17;43.85;;;27.17;;
21128;SDS011;10722;51.910;8.352;2023-10-09T11:51:03;42.05;;;25.20;;
21128;SDS011;10722;51.910;8.352;2023-10-09T11:53:48;42.92;;;24.50;;
21128;SDS011;10722;51.910;8.352;2023-10-09T11:56:33;41.78;;;24.92;;
21128;SDS011;10722;51.910;8.352;2023-10-09T11:59:18;42.60;;;25.58;;
21128;SDS011;10722;51.910;8.352;2023-10-09T12:02:04;38.83;;;23.92;;
21128;SDS011;10722;51.910;8.352;2023-10-09T12:04:50;42.45;;;24.92;;
21128;SDS011;10722;51.910;8.352;2023-10-09T12:07:35;41.10;;;24.85;;
21128;SDS011;10722;51.910;8.352;2023-10-09T12:10:21;39.53;;;24.00;;
21128;SDS011;10722;51.910;8.352;2023-10-09T12:13:07;40.55;;;23.58;;
21128;SDS011;10722;51.910;8.352;2023-10-09T12:15:52;37.72;;;22.70;;
21128;SDS011;10722;51.910;8.352;2023-10-09T12:18:38;37.33;;;23.45;;
21128;SDS011;10722;51.910;8.352;2023-10-09T12:21:23;41.20;;;22.23;;
21128;SDS011;10722;51.910;8.352;2023-10-09T12:24:09;38.90;;;22.98;;
21128;SDS011;10722;51.910;8.352;2023-10-09T12:26:55;37.15;;;23.00;;
21128;SDS011;10722;51.910;8.352;2023-10-09T12:29:40;36.97;;;21.38;;
21128;SDS011;10722;51.910;8.352;2023-10-09T12:32:25;39.70;;;22.30;;
21128;SDS011;10722;51.910;8.352;2023-10-09T12:35:11;38.13;;;22.58;;
21128;SDS011;10722;51.910;8.352;2023-10-09T12:37:56;39.13;;;22.90;;
21128;SDS011;10722;51.910;8.352;2023-10-09T12:40:41;38.33;;;22.77;;
21128;SDS011;10722;51.910;8.352;2023-10-09T12:43:27;41.63;;;21.38;;
21128;SDS011;10722;51.910;8.352;2023-10-09T12:46:14;38.88;;;23.23;;
21128;SDS011;10722;51.910;8.352;2023-10-09T12:48:59;38.55;;;21.73;;
21128;SDS011;10722;51.910;8.352;2023-10-09T12:51:44;39.42;;;23.17;;
21128;SDS011;10722;51.910;8.352;2023-10-09T12:54:29;37.60;;;23.15;;
21128;SDS011;10722;51.910;8.352;2023-10-09T12:57:15;37.05;;;22.10;;
21128;SDS011;10722;51.910;8.352;2023-10-09T13:00:00;39.88;;;22.70;;
21128;SDS011;10722;51.910;8.352;2023-10-09T13:02:46;40.60;;;22.58;;
21128;SDS011;10722;51.910;8.352;2023-10-09T13:05:32;40.50;;;22.15;;
21128;SDS011;10722;51.910;8.352;2023-10-09T13:08:21;38.15;;;22.25;;
21128;SDS011;10722;51.910;8.352;2023-10-09T13:11:11;40.67;;;22.58;;
21128;SDS011;10722;51.910;8.352;2023-10-09T13:13:57;44.25;;;23.73;;
21128;SDS011;10722;51.910;8.352;2023-10-09T13:16:42;42.47;;;25.75;;
21128;SDS011;10722;51.910;8.352;2023-10-09T13:19:28;44.03;;;26.50;;
21128;SDS011;10722;51.910;8.352;2023-10-09T13:22:13;41.40;;;24.17;;
21128;SDS011;10722;51.910;8.352;2023-10-09T13:24:59;41.67;;;26.55;;
21128;SDS011;10722;51.910;8.352;2023-10-09T13:27:44;38.28;;;22.48;;
21128;SDS011;10722;51.910;8.352;2023-10-09T13:30:29;40.50;;;22.58;;
21128;SDS011;10722;51.910;8.352;2023-10-09T13:33:14;42.65;;;21.65;;
21128;SDS011;10722;51.910;8.352;2023-10-09T13:36:00;39.85;;;21.95;;
21128;SDS011;10722;51.910;8.352;2023-10-09T13:38:45;38.10;;;22.15;;
21128;SDS011;10722;51.910;8.352;2023-10-09T13:41:31;36.22;;;20.95;;
21128;SDS011;10722;51.910;8.352;2023-10-09T13:44:17;35.35;;;21.63;;
21128;SDS011;10722;51.910;8.352;2023-10-09T13:47:04;38.88;;;21.20;;
21128;SDS011;10722;51.910;8.352;2023-10-09T13:49:49;37.10;;;20.42;;
21128;SDS011;10722;51.910;8.352;2023-10-09T13:52:35;41.50;;;21.00;;
21128;SDS011;10722;51.910;8.352;2023-10-09T13:55:20;38.90;;;20.83;;
21128;SDS011;10722;51.910;8.352;2023-10-09T13:58:05;35.47;;;20.60;;
21128;SDS011;10722;51.910;8.352;2023-10-09T14:00:50;39.25;;;21.08;;
21128;SDS011;10722;51.910;8.352;2023-10-09T14:03:35;38.22;;;21.73;;
21128;SDS011;10722;51.910;8.352;2023-10-09T14:06:21;38.47;;;20.95;;
21128;SDS011;10722;51.910;8.352;2023-10-09T14:09:06;40.22;;;21.10;;
21128;SDS011;10722;51.910;8.352;2023-10-09T14:11:51;37.65;;;20.20;;
21128;SDS011;10722;51.910;8.352;2023-10-09T14:14:40;36.33;;;20.52;;
21128;SDS011;10722;51.910;8.352;2023-10-09T14:17:26;37.88;;;20.13;;
21128;SDS011;10722;51.910;8.352;2023-10-09T14:20:12;33.22;;;18.70;;
21128;SDS011;10722;51.910;8.352;2023-10-09T14:23:00;39.28;;;20.73;;
21128;SDS011;10722;51.910;8.352;2023-10-09T14:25:46;33.47;;;19.90;;
21128;SDS011;10722;51.910;8.352;2023-10-09T14:28:31;38.10;;;20.15;;
21128;SDS011;10722;51.910;8.352;2023-10-09T14:31:17;34.28;;;19.45;;
21128;SDS011;10722;51.910;8.352;2023-10-09T14:34:02;33.90;;;19.35;;
21128;SDS011;10722;51.910;8.352;2023-10-09T14:36:47;34.13;;;18.55;;
21128;SDS011;10722;51.910;8.352;2023-10-09T14:39:31;34.65;;;19.17;;
21128;SDS011;10722;51.910;8.352;2023-10-09T14:42:17;34.28;;;18.83;;
21128;SDS011;10722;51.910;8.352;2023-10-09T14:45:03;34.80;;;19.30;;
21128;SDS011;10722;51.910;8.352;2023-10-09T14:47:48;34.55;;;18.60;;
21128;SDS011;10722;51.910;8.352;2023-10-09T14:50:33;35.47;;;18.73;;
21128;SDS011;10722;51.910;8.352;2023-10-09T14:53:18;35.67;;;19.17;;
21128;SDS011;10722;51.910;8.352;2023-10-09T14:56:04;38.05;;;19.38;;
21128;SDS011;10722;51.910;8.352;2023-10-09T14:58:49;35.72;;;18.60;;
21128;SDS011;10722;51.910;8.352;2023-10-09T15:01:34;38.97;;;19.00;;
21128;SDS011;10722;51.910;8.352;2023-10-09T15:04:20;30.33;;;17.58;;
21128;SDS011;10722;51.910;8.352;2023-10-09T15:07:04;36.03;;;18.33;;
21128;SDS011;10722;51.910;8.352;2023-10-09T15:09:49;32.08;;;17.77;;
21128;SDS011;10722;51.910;8.352;2023-10-09T15:12:35;42.33;;;19.42;;
21128;SDS011;10722;51.910;8.352;2023-10-09T15:15:20;37.42;;;18.67;;
21128;SDS011;10722;51.910;8.352;2023-10-09T15:18:05;34.47;;;18.30;;
21128;SDS011;10722;51.910;8.352;2023-10-09T15:20:50;34.20;;;17.95;;
21128;SDS011;10722;51.910;8.352;2023-10-09T15:23:35;32.83;;;18.27;;
21128;SDS011;10722;51.910;8.352;2023-10-09T15:26:20;34.58;;;18.10;;
21128;SDS011;10722;51.910;8.352;2023-10-09T15:29:05;32.88;;;18.55;;
21128;SDS011;10722;51.910;8.352;2023-10-09T15:31:51;34.97;;;19.27;;
21128;SDS011;10722;51.910;8.352;2023-10-09T15:34:36;38.47;;;20.33;;
21128;SDS011;10722;51.910;8.352;2023-10-09T15:37:22;40.47;;;19.52;;
21128;SDS011;10722;51.910;8.352;2023-10-09T15:40:07;36.67;;;20.10;;
21128;SDS011;10722;51.910;8.352;2023-10-09T15:42:52;35.35;;;20.42;;
21128;SDS011;10722;51.910;8.352;2023-10-09T15:45:40;37.38;;;20.17;;
21128;SDS011;10722;51.910;8.352;2023-10-09T15:48:26;36.35;;;19.75;;
21128;SDS011;10722;51.910;8.352;2023-10-09T15:51:14;36.92;;;20.45;;
21128;SDS011;10722;51.910;8.352;2023-10-09T15:53:59;37.50;;;20.70;;
21128;SDS011;10722;51.910;8.352;2023-10-09T15:56:45;42.45;;;21.15;;
21128;SDS011;10722;51.910;8.352;2023-10-09T15:59:50;39.83;;;20.55;;
21128;SDS011;10722;51.910;8.352;2023-10-09T16:02:36;38.80;;;20.48;;
21128;SDS011;10722;51.910;8.352;2023-10-09T16:05:21;40.42;;;21.70;;
21128;SDS011;10722;51.910;8.352;2023-10-09T16:08:07;36.33;;;21.17;;
21128;SDS011;10722;51.910;8.352;2023-10-09T16:10:51;38.90;;;21.10;;
21128;SDS011;10722;51.910;8.352;2023-10-09T16:13:36;36.33;;;20.60;;
21128;SDS011;10722;51.910;8.352;2023-10-09T16:16:28;41.38;;;21.60;;
21128;SDS011;10722;51.910;8.352;2023-10-09T16:19:14;36.22;;;21.38;;
21128;SDS011;10722;51.910;8.352;2023-10-09T16:21:59;36.88;;;20.40;;
21128;SDS011;10722;51.910;8.352;2023-10-09T16:24:44;35.20;;;21.02;;
21128;SDS011;10722;51.910;8.352;2023-10-09T16:27:29;39.53;;;21.23;;
21128;SDS011;10722;51.910;8.352;2023-10-09T16:30:17;40.25;;;22.30;;
21128;SDS011;10722;51.910;8.352;2023-10-09T16:33:04;37.70;;;22.23;;